^^
Datos históricos de la estación: Murcia-Puente Tocinos
Diario Informe para Enero 8, 2019 Unidades:  Métrico    Ingés   Ambas
Diario Semanal Mensual Anual
  Máxima: Mínima: Promedio:
Temperatura: 23.3 °C 13.5 °C 17.3 °C
Punto de rocio: 10.5 °C 5.8 °C 8.1 °C
Humedad: 70% 36.4% 56%
Velocidad viento: 14km/h 0km/h 5.3km/h
Racha viento: 33.8km/h - -
Viento- - SSO
Presión: 1014.1 hPa 1010.0 hPa -
Precipitación: 0.0 mm    
 
 
Tabla de datos para Enero 8, 2019
Hora Temperatura Punto de rocio Presión Viento Velocidad viento Racha viento Humedad Intensidad lluvia(por hora) Nubes
00:04 16.3 °C 5.8 °C 1014.0 hPa SE 3.9 km/h 6.4 km/h 49.9% 0.0 mm
00:09 16.3 °C 5.8 °C 1014.0 hPa SE 3.6 km/h 5.8 km/h 50% 0.0 mm
00:14 16.2 °C 5.8 °C 1014.0 hPa SE 3.2 km/h 6.4 km/h 50% 0.0 mm
00:19 16.2 °C 5.8 °C 1014.1 hPa SE 3.2 km/h 4.7 km/h 50% 0.0 mm
00:24 16.2 °C 6 °C 1014.1 hPa SE 3.2 km/h 4.8 km/h 50.9% 0.0 mm
00:29 16.2 °C 6.2 °C 1014.1 hPa SE 1.8 km/h   51.6% 0.0 mm
00:34 16.1 °C 6.2 °C 1014.1 hPa Calm     52% 0.0 mm
00:39 15.9 °C 6.3 °C 1013.9 hPa Calm     52.7% 0.0 mm
00:44 15.9 °C 6.5 °C 1013.9 hPa Calm     53.5% 0.0 mm
00:49 15.8 °C 6.4 °C 1014.0 hPa Calm   3.7 km/h 53.6% 0.0 mm
00:54 15.7 °C 6.2 °C 1014.0 hPa Calm   9.3 km/h 53% 0.0 mm
00:59 15.6 °C 6.2 °C 1014.0 hPa SE 1.6 km/h 9.7 km/h 53.7% 0.0 mm
01:04 15.4 °C 5.9 °C 1014.0 hPa SSE 3.2 km/h 8 km/h 53.1% 0.0 mm
01:09 15.4 °C 5.9 °C 1014.0 hPa SSE 3.2 km/h 8 km/h 53.2% 0.0 mm
01:14 15.5 °C 5.9 °C 1014.0 hPa SSO 3.2 km/h 9.3 km/h 53% 0.0 mm
01:19 15.6 °C 5.9 °C 1014.0 hPa SSO 3.9 km/h 9.7 km/h 52.4% 0.0 mm
01:24 15.6 °C 5.8 °C 1014.0 hPa SO 4.7 km/h 8 km/h 52% 0.0 mm
01:29 15.7 °C 5.9 °C 1014.0 hPa SO 4 km/h 4.8 km/h 52% 0.0 mm
01:34 15.7 °C 6.1 °C 1014.0 hPa SO 3.2 km/h 3.7 km/h 52.8% 0.0 mm
01:39 15.6 °C 6.3 °C 1013.9 hPa SO 1.8 km/h 3.7 km/h 53.9% 0.0 mm
01:44 15.5 °C 6.1 °C 1013.9 hPa Calm   3.2 km/h 53.6% 0.0 mm
01:49 15.4 °C 6.4 °C 1013.9 hPa Calm   7.6 km/h 54.9% 0.0 mm
01:54 15.2 °C 6.6 °C 1013.7 hPa Calm   8 km/h 56.5% 0.0 mm
01:59 14.9 °C 6.6 °C 1013.7 hPa ESE 2.4 km/h 8 km/h 57.2% 0.0 mm
02:04 14.8 °C 6.6 °C 1013.7 hPa ESE 4.6 km/h 6.4 km/h 58% 0.0 mm
02:09 14.8 °C 6.7 °C 1013.6 hPa ESE 4.3 km/h 7.4 km/h 58.6% 0.0 mm
02:14 14.7 °C 6.7 °C 1013.6 hPa SE 3.9 km/h 8 km/h 58.6% 0.0 mm
02:19 14.7 °C 6.5 °C 1013.6 hPa SSE 3.9 km/h 8 km/h 58% 0.0 mm
02:24 14.7 °C 6.5 °C 1013.4 hPa Sur 3.9 km/h 8 km/h 58% 0.0 mm
02:29 14.8 °C 6.4 °C 1013.4 hPa SSO 4.2 km/h 8 km/h 57.3% 0.0 mm
02:34 14.8 °C 6.3 °C 1013.4 hPa SSO 4.7 km/h 6.4 km/h 56.8% 0.0 mm
02:39 14.9 °C 6.7 °C 1013.4 hPa SSO 3.9 km/h 4.8 km/h 57.8% 0.0 mm
02:44 14.9 °C 6.7 °C 1013.4 hPa SSO 2.9 km/h 3.2 km/h 58% 0.0 mm
02:49 14.9 °C 6.7 °C 1013.4 hPa SSO 1.6 km/h 3.9 km/h 58% 0.0 mm
02:54 14.9 °C 6.8 °C 1013.4 hPa Calm   5.6 km/h 58.3% 0.0 mm
02:59 14.9 °C 6.9 °C 1013.4 hPa Sur 1.5 km/h 7.4 km/h 58.9% 0.0 mm
03:04 14.9 °C 6.9 °C 1013.4 hPa Sur 2.9 km/h 8 km/h 59% 0.0 mm
03:09 14.9 °C 6.9 °C 1013.3 hPa Sur 2.6 km/h 3.2 km/h 59% 0.0 mm
03:14 14.9 °C 6.9 °C 1013.3 hPa Sur 2.2 km/h   59% 0.0 mm
03:19 14.8 °C 7 °C 1013.3 hPa Sur 1.3 km/h   59.5% 0.0 mm
03:24 14.8 °C 7.1 °C 1013.3 hPa Calm   5 km/h 60% 0.0 mm
03:29 14.8 °C 7.1 °C 1013.3 hPa Sur 1.1 km/h 5.6 km/h 60% 0.0 mm
03:34 14.8 °C 7.1 °C 1013.3 hPa Sur 2.2 km/h 4.8 km/h 60% 0.0 mm
03:39 14.8 °C 7.1 °C 1013.1 hPa Sur 1.2 km/h 1.6 km/h 60% 0.0 mm
03:44 14.8 °C 7 °C 1013.1 hPa Calm   5 km/h 59.5% 0.0 mm
03:49 14.7 °C 7.3 °C 1013.1 hPa Calm   5.8 km/h 60.8% 0.0 mm
03:54 14.7 °C 7.4 °C 1013.1 hPa Calm   6.4 km/h 61.7% 0.0 mm
03:59 14.7 °C 7.1 °C 1013.1 hPa Oeste 1.5 km/h 6.4 km/h 60.8% 0.0 mm
04:04 14.6 °C 6.7 °C 1013.1 hPa Oeste 2.9 km/h 4.8 km/h 59.4% 0.0 mm
04:09 14.6 °C 7 °C 1012.9 hPa Oeste 1.6 km/h 7.4 km/h 60.3% 0.0 mm
04:14 14.7 °C 6.9 °C 1012.9 hPa Calm   8 km/h 59.8% 0.0 mm
04:19 14.7 °C 7 °C 1012.9 hPa SSO 1.4 km/h 8 km/h 60% 0.0 mm
04:24 14.7 °C 6.9 °C 1012.8 hPa SSO 3.2 km/h 5.8 km/h 59.7% 0.0 mm
04:29 14.7 °C 7 °C 1012.8 hPa SSO 3.1 km/h 9.5 km/h 60% 0.0 mm
04:34 14.7 °C 6.8 °C 1013.0 hPa SSO 2.9 km/h 11.1 km/h 59.1% 0.0 mm
04:39 14.8 °C 6.9 °C 1013.0 hPa SSO 4.8 km/h 11.3 km/h 59.4% 0.0 mm
04:44 14.7 °C 7 °C 1013.0 hPa SSO 6.9 km/h 9.7 km/h 59.9% 0.0 mm
04:49 14.7 °C 7 °C 1013.0 hPa SSO 6.4 km/h 9.7 km/h 60% 0.0 mm
04:54 14.7 °C 7 °C 1012.8 hPa SSO 5.8 km/h 9.7 km/h 60% 0.0 mm
04:59 14.7 °C 7 °C 1012.8 hPa SSO 5.4 km/h 9.3 km/h 60% 0.0 mm
05:04 14.7 °C 6.9 °C 1012.8 hPa SSO 5 km/h 9.7 km/h 59.8% 0.0 mm
05:09 14.7 °C 7 °C 1012.7 hPa SO 5 km/h 8.4 km/h 60% 0.0 mm
05:14 14.7 °C 7 °C 1012.7 hPa Sur 5 km/h 11.1 km/h 59.9% 0.0 mm
05:19 14.7 °C 7 °C 1012.7 hPa SSO 5.9 km/h 11.3 km/h 60% 0.0 mm
05:24 14.7 °C 7 °C 1012.7 hPa SSO 6.9 km/h 10 km/h 60% 0.0 mm
05:29 14.6 °C 6.9 °C 1012.7 hPa SO 6.7 km/h 9.7 km/h 60% 0.0 mm
05:34 14.6 °C 6.9 °C 1012.8 hPa SO 6.5 km/h 8 km/h 60% 0.0 mm
05:39 14.6 °C 6.9 °C 1012.8 hPa OSO 5.8 km/h 8 km/h 60% 0.0 mm
05:44 14.6 °C 6.9 °C 1012.8 hPa SO 5 km/h 8.4 km/h 60% 0.0 mm
05:49 14.7 °C 7 °C 1012.8 hPa Sur 4.8 km/h 8.4 km/h 60% 0.0 mm
05:54 14.7 °C 7.2 °C 1012.5 hPa Sur 4.7 km/h 11.9 km/h 60.9% 0.0 mm
05:59 14.5 °C 7.2 °C 1012.5 hPa SSO 5.6 km/h 11.3 km/h 61.8% 0.0 mm
06:04 14.3 °C 7.2 °C 1012.6 hPa SO 6.5 km/h 11.1 km/h 62.2% 0.0 mm
06:09 14.3 °C 7.3 °C 1012.6 hPa SSO 6.7 km/h 11.3 km/h 63% 0.0 mm
06:14 14.3 °C 7.2 °C 1012.6 hPa SSO 6.9 km/h 10.3 km/h 62.2% 0.0 mm
06:19 14.3 °C 7.1 °C 1012.6 hPa SSO 6.7 km/h 11.3 km/h 62% 0.0 mm
06:24 14.2 °C 7.1 °C 1012.4 hPa SSO 6.5 km/h 11.3 km/h 62.2% 0.0 mm
06:29 14.2 °C 7.3 °C 1012.4 hPa SO 6.2 km/h 11.3 km/h 63% 0.0 mm
06:34 14.2 °C 7.3 °C 1012.4 hPa OSO 5.8 km/h 9.7 km/h 63% 0.0 mm
06:39 14.2 °C 7.3 °C 1012.4 hPa OSO 5.8 km/h 9.7 km/h 63% 0.0 mm
06:44 14.2 °C 7.3 °C 1012.4 hPa SO 5.8 km/h 9.7 km/h 63% 0.0 mm
06:49 14.2 °C 7.3 °C 1012.4 hPa SO 5.4 km/h 11.9 km/h 63% 0.0 mm
06:54 14.2 °C 7.3 °C 1012.4 hPa SO 5 km/h 11.3 km/h 63% 0.0 mm
06:59 14.2 °C 7.3 °C 1012.4 hPa SO 5 km/h 9.3 km/h 63% 0.0 mm
07:04 14.3 °C 7.3 °C 1012.4 hPa SO 5 km/h 9.7 km/h 63% 0.0 mm
07:09 14.3 °C 7.3 °C 1012.4 hPa SO 4.2 km/h 8 km/h 63% 0.0 mm
07:14 14.2 °C 7.4 °C 1012.4 hPa SO 3.2 km/h 8.4 km/h 63.7% 0.0 mm
07:19 14.2 °C 7.5 °C 1012.6 hPa OSO 4 km/h 9.3 km/h 64% 0.0 mm
07:24 14.2 °C 7.5 °C 1012.6 hPa OSO 5 km/h 9.7 km/h 64% 0.0 mm
07:29 14.1 °C 7.5 °C 1012.6 hPa SO 5.3 km/h 11.1 km/h 64.3% 0.0 mm
07:34 14 °C 7.5 °C 1012.6 hPa SO 5.8 km/h 11.3 km/h 65% 0.0 mm
07:39 14 °C 7.5 °C 1012.6 hPa SSO 6.3 km/h 11.3 km/h 65% 0.0 mm
07:44 14.1 °C 7.8 °C 1012.6 hPa SSO 6.9 km/h 11.3 km/h 65.8% 0.0 mm
07:49 14.1 °C 7.8 °C 1012.6 hPa OSO 6.1 km/h 9.7 km/h 66% 0.0 mm
07:54 14.1 °C 7.8 °C 1012.5 hPa OSO 5 km/h 8 km/h 66% 0.0 mm
07:59 14.1 °C 7.8 °C 1012.5 hPa OSO 4.1 km/h 8 km/h 66% 0.0 mm
08:04 14.1 °C 7.8 °C 1012.8 hPa OSO 3.2 km/h 4.8 km/h 66% 0.0 mm
08:09 14 °C 7.8 °C 1012.8 hPa OSO 2.8 km/h 5.8 km/h 66.4% 0.0 mm
08:14 13.9 °C 7.9 °C 1012.8 hPa OSO 2.2 km/h 8.4 km/h 67% 0.0 mm
08:19 13.9 °C 7.9 °C 1012.9 hPa SO 3.3 km/h 10 km/h 67% 0.0 mm
08:24 13.9 °C 7.9 °C 1012.9 hPa SO 4.7 km/h 9.7 km/h 67% 0.0 mm
08:29 13.8 °C 8.1 °C 1012.9 hPa SSE 5.4 km/h 13 km/h 68.4% 0.0 mm
08:34 13.7 °C 8.1 °C 1013.2 hPa SSO 6.5 km/h 12.9 km/h 69.5% 0.0 mm
08:39 13.5 °C 8.1 °C 1013.2 hPa Sur 7 km/h 13 km/h 70% 0.0 mm
08:44 13.5 °C 8.1 °C 1013.2 hPa Sur 7.6 km/h 13 km/h 70% 0.0 mm
08:49 13.5 °C 8.1 °C 1013.2 hPa Sur 7.9 km/h 12.9 km/h 69.8% 0.0 mm
08:54 13.6 °C 8 °C 1013.2 hPa Sur 8.4 km/h 9.7 km/h 69% 0.0 mm
08:59 13.6 °C 8 °C 1013.2 hPa Sur 7.4 km/h 11.9 km/h 69% 0.0 mm
09:04 13.7 °C 8.1 °C 1013.2 hPa Sur 6.5 km/h 11.3 km/h 69% 0.0 mm
09:09 13.7 °C 8.1 °C 1013.1 hPa Sur 5.8 km/h 8 km/h 69% 0.0 mm
09:14 13.7 °C 8.1 °C 1013.1 hPa SSO 5 km/h 9.3 km/h 69% 0.0 mm
09:19 13.8 °C 8.2 °C 1013.3 hPa SO 5 km/h 10 km/h 69% 0.0 mm
09:24 13.8 °C 8.1 °C 1013.3 hPa OSO 5 km/h 11.1 km/h 68.3% 0.0 mm
09:29 13.9 °C 8.1 °C 1013.3 hPa OSO 5.3 km/h 11.3 km/h 68% 0.0 mm
09:34 13.9 °C 8.1 °C 1013.3 hPa OSO 5.8 km/h 11.1 km/h 68% 0.0 mm
09:39 13.9 °C 8.1 °C 1013.3 hPa OSO 5.8 km/h 12.2 km/h 68% 0.0 mm
09:44 13.9 °C 8.1 °C 1013.3 hPa Oeste 5.8 km/h 13 km/h 68% 0.0 mm
09:49 13.9 °C 8.1 °C 1013.3 hPa Oeste 6.3 km/h 12.9 km/h 68.1% 0.0 mm
09:54 13.9 °C 8.3 °C 1013.3 hPa ONO 6.9 km/h 11.9 km/h 68.9% 0.0 mm
09:59 13.8 °C 8.2 °C 1013.3 hPa Oeste 6.9 km/h 11.9 km/h 69% 0.0 mm
10:04 13.9 °C 8.3 °C 1013.4 hPa Sur 6.9 km/h 11.3 km/h 69% 0.0 mm
10:09 13.9 °C 8.3 °C 1013.4 hPa SSO 5.6 km/h 8 km/h 69% 0.0 mm
10:14 14 °C 8.2 °C 1013.4 hPa SSO 3.9 km/h 8 km/h 68.1% 0.0 mm
10:19 14 °C 8.5 °C 1013.4 hPa SSE 4.3 km/h 10 km/h 69.6% 0.0 mm
10:24 13.9 °C 8.5 °C 1013.3 hPa SSE 5 km/h 9.7 km/h 70% 0.0 mm
10:29 13.9 °C 8.5 °C 1013.3 hPa SSE 4.5 km/h 8 km/h 70% 0.0 mm
10:34 14.1 °C 8.7 °C 1013.3 hPa SSE 3.9 km/h 3.9 km/h 69.9% 0.0 mm
10:39 14.2 °C 8.6 °C 1013.3 hPa SSE 2.2 km/h 4.7 km/h 69% 0.0 mm
10:44 14.3 °C 8.6 °C 1013.3 hPa Calm   4.8 km/h 69% 0.0 mm
10:49 14.4 °C 8.7 °C 1013.3 hPa Calm   6.9 km/h 68.9% 0.0 mm
10:54 14.5 °C 8.7 °C 1013.1 hPa Calm   8 km/h 68% 0.0 mm
10:59 14.6 °C 8.9 °C 1013.1 hPa ESE 2 km/h 9.5 km/h 68.9% 0.0 mm
11:04 14.5 °C 8.8 °C 1013.3 hPa SE 3.9 km/h 10 km/h 68.7% 0.0 mm
11:09 14.6 °C 8.8 °C 1013.3 hPa SSE 4.2 km/h 9.7 km/h 68.4% 0.0 mm
11:14 14.7 °C 8.7 °C 1013.3 hPa Sur 4.7 km/h 8 km/h 67.5% 0.0 mm
11:19 14.8 °C 8.7 °C 1013.4 hPa SSE 4.7 km/h 9.5 km/h 67% 0.0 mm
11:24 14.8 °C 8.7 °C 1013.4 hPa SSE 4.7 km/h 10 km/h 67% 0.0 mm
11:29 14.9 °C 8.8 °C 1013.4 hPa Sur 5.5 km/h 9.7 km/h 66.7% 0.0 mm
11:34 15.1 °C 8.8 °C 1013.6 hPa SSO 6.5 km/h 11.1 km/h 65.8% 0.0 mm
11:39 15.3 °C 8.8 °C 1013.6 hPa SSO 6.2 km/h 11.3 km/h 65.1% 0.0 mm
11:44 15.6 °C 8.9 °C 1013.6 hPa SO 5.8 km/h 9.7 km/h 64.2% 0.0 mm
11:49 15.9 °C 8.8 °C 1013.6 hPa SSO 5.3 km/h 8.4 km/h 63.1% 0.0 mm
11:54 16.1 °C 8.9 °C 1013.6 hPa SSE 4.7 km/h 10 km/h 62.2% 0.0 mm
11:59 16.2 °C 8.7 °C 1013.6 hPa SSE 5.5 km/h 9.7 km/h 61% 0.0 mm
12:04 16.2 °C 8.7 °C 1013.6 hPa SSE 6.5 km/h 9.7 km/h 60.9% 0.0 mm
12:09 16.3 °C 8.5 °C 1013.4 hPa SSE 5.8 km/h 9.7 km/h 60% 0.0 mm
12:14 16.4 °C 8.7 °C 1013.4 hPa Sur 5 km/h 10 km/h 60% 0.0 mm
12:19 16.6 °C 8.7 °C 1013.4 hPa SSE 5.4 km/h 10 km/h 59.6% 0.0 mm
12:24 16.7 °C 8.7 °C 1013.4 hPa SSE 5.8 km/h 9.7 km/h 59% 0.0 mm
12:29 16.8 °C 8.7 °C 1013.4 hPa SSO 6.3 km/h 13 km/h 58.8% 0.0 mm
12:34 16.9 °C 8.7 °C 1013.4 hPa SSO 6.9 km/h 12.9 km/h 58.4% 0.0 mm
12:39 17.1 °C 8.8 °C 1013.2 hPa SO 6.4 km/h 9.7 km/h 58% 0.0 mm
12:44 17.4 °C 8.9 °C 1013.2 hPa SSE 5.8 km/h 11.9 km/h 57.5% 0.0 mm
12:49 17.7 °C 8.9 °C 1013.2 hPa SSE 5.4 km/h 11.3 km/h 56.2% 0.0 mm
12:54 17.9 °C 8.9 °C 1013.1 hPa OSO 5 km/h 11.3 km/h 55.4% 0.0 mm
12:59 18.1 °C 8.9 °C 1013.1 hPa OSO 4.8 km/h 8.4 km/h 55% 0.0 mm
13:04 18.3 °C 9 °C 1013.1 hPa OSO 4.6 km/h 8 km/h 54.7% 0.0 mm
13:09 18.6 °C 8.7 °C 1012.9 hPa SSO 4 km/h 9.5 km/h 52.4% 0.0 mm
13:14 18.8 °C 8.7 °C 1012.9 hPa SO 3.2 km/h 10 km/h 51.8% 0.0 mm
13:19 19.1 °C 8.6 °C 1012.9 hPa OSO 3.9 km/h 11.9 km/h 50.8% 0.0 mm
13:24 19.2 °C 8.4 °C 1012.7 hPa Oeste 4.7 km/h 11.3 km/h 49.5% 0.0 mm
13:29 19.3 °C 8.5 °C 1012.7 hPa Oeste 5.5 km/h 11.3 km/h 49.7% 0.0 mm
13:34 19.5 °C 8.5 °C 1012.7 hPa ONO 6.5 km/h 11.1 km/h 49% 0.0 mm
13:39 19.7 °C 8.7 °C 1012.7 hPa NO 5.3 km/h 11.3 km/h 49% 0.0 mm
13:44 20.1 °C 8.6 °C 1012.7 hPa Oeste 3.9 km/h 13 km/h 47.7% 0.0 mm
13:49 20.1 °C 8.1 °C 1012.7 hPa OSO 5 km/h 19 km/h 46.2% 0.0 mm
13:54 19.9 °C 8 °C 1012.5 hPa ONO 6.5 km/h 20.9 km/h 46% 0.0 mm
13:59 19.9 °C 8.1 °C 1012.5 hPa Oeste 8.8 km/h 19.3 km/h 46.6% 0.0 mm
14:04 20.1 °C 8.2 °C 1012.5 hPa Oeste 11.1 km/h 19.3 km/h 46.3% 0.0 mm
14:09 20.2 °C 8 °C 1012.4 hPa ONO 10.6 km/h 20.4 km/h 45.2% 0.0 mm
14:14 20.4 °C 8 °C 1012.4 hPa Oeste 10 km/h 20.9 km/h 44.8% 0.0 mm
14:19 20.5 °C 7.7 °C 1012.4 hPa SO 9.8 km/h 19.3 km/h 43.5% 0.0 mm
14:24 20.7 °C 7.5 °C 1012.2 hPa SO 9.5 km/h 16.7 km/h 42.5% 0.0 mm
14:29 20.8 °C 7.5 °C 1012.2 hPa SO 9.1 km/h 14.5 km/h 42.3% 0.0 mm
14:34 20.9 °C 7.8 °C 1012.2 hPa SSO 8.7 km/h 14.5 km/h 43% 0.0 mm
14:39 20.9 °C 7.7 °C 1012.2 hPa SSO 8.2 km/h 18.5 km/h 42.5% 0.0 mm
14:44 20.9 °C 7.7 °C 1012.2 hPa SSO 7.6 km/h 19.3 km/h 42.7% 0.0 mm
14:49 20.8 °C 7.8 °C 1012.2 hPa SSO 8.1 km/h 19.3 km/h 43% 0.0 mm
14:54 21 °C 7.9 °C 1012.1 hPa Oeste 8.7 km/h 16.1 km/h 43% 0.0 mm
14:59 21.1 °C 8 °C 1012.1 hPa Oeste 8.1 km/h 18.5 km/h 42.8% 0.0 mm
15:04 21.3 °C 8.1 °C 1012.1 hPa Oeste 7.6 km/h 19.3 km/h 42.8% 0.0 mm
15:09 21.4 °C 7.9 °C 1011.9 hPa SO 7.9 km/h 20.1 km/h 41.8% 0.0 mm
15:14 21.4 °C 7.9 °C 1011.9 hPa OSO 8.4 km/h 20.9 km/h 42% 0.0 mm
15:19 21.4 °C 7.9 °C 1011.9 hPa SSO 9.2 km/h 20.9 km/h 41.9% 0.0 mm
15:24 21.6 °C 8 °C 1011.6 hPa SO 10.3 km/h 14.8 km/h 41.7% 0.0 mm
15:29 21.7 °C 8 °C 1011.6 hPa SSO 9.5 km/h 14.5 km/h 41.5% 0.0 mm
15:34 21.9 °C 8 °C 1011.6 hPa SSO 8.4 km/h 14.8 km/h 41% 0.0 mm
15:39 21.8 °C 8 °C 1011.4 hPa SO 7.7 km/h 14.5 km/h 41% 0.0 mm
15:44 22.1 °C 8.1 °C 1011.4 hPa SSO 6.9 km/h 22.2 km/h 40.7% 0.0 mm
15:49 22 °C 7.8 °C 1011.4 hPa SSE 8.8 km/h 27 km/h 40.1% 0.0 mm
15:54 21.8 °C 8 °C 1011.1 hPa OSO 11.1 km/h 27.4 km/h 41% 0.0 mm
15:59 21.9 °C 7.9 °C 1011.1 hPa OSO 10.5 km/h 19.3 km/h 40.7% 0.0 mm
16:04 22 °C 8.1 °C 1011.1 hPa OSO 10 km/h 19.3 km/h 40.6% 0.0 mm
16:09 22.1 °C 7.9 °C 1010.9 hPa NO 9.8 km/h 17.7 km/h 40% 0.0 mm
16:14 22.3 °C 8.1 °C 1010.9 hPa SO 9.5 km/h 16.1 km/h 40% 0.0 mm
16:19 22.7 °C 8 °C 1010.9 hPa SO 8.4 km/h 20.4 km/h 39% 0.0 mm
16:24 22.7 °C 8 °C 1010.8 hPa SO 6.9 km/h 20.9 km/h 39% 0.0 mm
16:29 22.8 °C 7.9 °C 1010.8 hPa Sur 8 km/h 20.4 km/h 38.3% 0.0 mm
16:34 22.7 °C 7.7 °C 1010.8 hPa SSO 9.5 km/h 20.9 km/h 38% 0.0 mm
16:39 22.6 °C 7.9 °C 1010.7 hPa SE 7.9 km/h 12.9 km/h 38.9% 0.0 mm
16:44 22.8 °C 8 °C 1010.7 hPa SSO 5.8 km/h 14.8 km/h 38.8% 0.0 mm
16:49 22.8 °C 7.8 °C 1010.7 hPa Oeste 6.9 km/h 14.5 km/h 38.2% 0.0 mm
16:54 22.9 °C 8.2 °C 1010.5 hPa Oeste 8.4 km/h 12.9 km/h 38.9% 0.0 mm
16:59 23.3 °C 8 °C 1010.5 hPa OSO 6.1 km/h 13 km/h 37.5% 0.0 mm
17:04 23.3 °C 7.8 °C 1010.5 hPa ONO 3.9 km/h 24.1 km/h 37% 0.0 mm
17:09 23.1 °C 7.4 °C 1010.3 hPa Oeste 6.5 km/h 24.1 km/h 36.4% 0.0 mm
17:14 22.9 °C 7.3 °C 1010.3 hPa SO 10 km/h 22.5 km/h 36.8% 0.0 mm
17:19 22.7 °C 7.4 °C 1010.3 hPa SO 9.4 km/h 16.1 km/h 37.1% 0.0 mm
17:24 22.8 °C 7.4 °C 1010.1 hPa OSO 8.7 km/h 17.2 km/h 37.1% 0.0 mm
17:29 22.7 °C 7.3 °C 1010.1 hPa ONO 8.7 km/h 17.7 km/h 37% 0.0 mm
17:34 22.7 °C 7.5 °C 1010.2 hPa Oeste 8.7 km/h 16.7 km/h 37.7% 0.0 mm
17:39 22.6 °C 7.5 °C 1010.2 hPa OSO 8.6 km/h 18 km/h 37.9% 0.0 mm
17:44 22.6 °C 7.6 °C 1010.2 hPa OSO 8.4 km/h 19.3 km/h 38% 0.0 mm
17:49 22.6 °C 7.6 °C 1010.2 hPa Oeste 8 km/h 19.3 km/h 38% 0.0 mm
17:54 22.6 °C 7.8 °C 1010.0 hPa ONO 7.6 km/h 19.3 km/h 38.5% 0.0 mm
17:59 22.5 °C 7.7 °C 1010.0 hPa ONO 9 km/h 19.3 km/h 38.7% 0.0 mm
18:04 22.5 °C 7.9 °C 1010.2 hPa Oeste 10.3 km/h 16.7 km/h 39.2% 0.0 mm
18:09 22.4 °C 8.6 °C 1010.2 hPa ONO 9.6 km/h 20.4 km/h 41.4% 0.0 mm
18:14 22.1 °C 8.9 °C 1010.2 hPa ONO 8.7 km/h 20.9 km/h 42.7% 0.0 mm
18:19 21.9 °C 9.1 °C 1010.4 hPa NO 9.1 km/h 25.6 km/h 44.1% 0.0 mm
18:24 21.6 °C 8.9 °C 1010.4 hPa NO 9.5 km/h 33.3 km/h 44.4% 0.0 mm
18:29 21 °C 9.1 °C 1010.4 hPa NO 11.4 km/h 33.8 km/h 46.5% 0.0 mm
18:34 20.4 °C 9.8 °C 1010.5 hPa NO 14 km/h 29.6 km/h 50.5% 0.0 mm
18:39 19.9 °C 10 °C 1010.5 hPa NO 13.9 km/h 29 km/h 52.9% 0.0 mm
18:44 19.7 °C 10.1 °C 1010.5 hPa NO 13.7 km/h 20.9 km/h 54% 0.0 mm
18:49 19.6 °C 10.2 °C 1010.5 hPa NO 11.8 km/h 19.3 km/h 54.5% 0.0 mm
18:54 19.6 °C 10.3 °C 1010.4 hPa NO 9.5 km/h 19.3 km/h 54.9% 0.0 mm
18:59 19.6 °C 10.5 °C 1010.4 hPa NO 9.5 km/h 16.1 km/h 55.7% 0.0 mm
19:04 19.6 °C 10.5 °C 1010.5 hPa NNO 9.5 km/h 14.5 km/h 56% 0.0 mm
19:09 19.5 °C 10.3 °C 1010.5 hPa NNO 8.4 km/h 12.9 km/h 55.4% 0.0 mm
19:14 19.6 °C 10.3 °C 1010.5 hPa NNE 6.9 km/h 9.7 km/h 55% 0.0 mm
19:19 19.6 °C 10.3 °C 1010.6 hPa ESE 6.1 km/h 12.2 km/h 55% 0.0 mm
19:24 19.7 °C 10.3 °C 1010.6 hPa ESE 5 km/h 14 km/h 54.7% 0.0 mm
19:29 19.7 °C 10.1 °C 1010.6 hPa ESE 6.5 km/h 14.8 km/h 54% 0.0 mm
19:34 19.7 °C 9.9 °C 1010.6 hPa ESE 8.4 km/h 12.9 km/h 53.2% 0.0 mm
19:39 19.7 °C 9.8 °C 1010.6 hPa ESE 8.4 km/h 12.9 km/h 53% 0.0 mm
19:44 19.7 °C 9.8 °C 1010.6 hPa ENE 8.4 km/h 11.3 km/h 53% 0.0 mm
19:49 19.7 °C 10 °C 1010.8 hPa ENE 6 km/h 8 km/h 53.4% 0.0 mm
19:54 19.7 °C 9.8 °C 1010.8 hPa Este 2.9 km/h 8.4 km/h 53% 0.0 mm
19:59 19.7 °C 9.8 °C 1010.8 hPa ESE 3.1 km/h 8 km/h 53% 0.0 mm
20:04 19.6 °C 9.8 °C 1010.8 hPa Este 3.2 km/h 7.6 km/h 53% 0.0 mm
20:09 19.6 °C 9.7 °C 1010.8 hPa ENE 3.2 km/h 8 km/h 52.9% 0.0 mm
20:14 19.6 °C 9.8 °C 1010.8 hPa ENE 3.2 km/h 8 km/h 52.9% 0.0 mm
20:19 19.6 °C 9.7 °C 1010.8 hPa NE 2.8 km/h 5.6 km/h 52.9% 0.0 mm
20:24 19.6 °C 9.8 °C 1010.8 hPa NE 2.2 km/h 5.6 km/h 53% 0.0 mm
20:29 19.5 °C 9.7 °C 1010.8 hPa ENE 2.7 km/h 7.6 km/h 53% 0.0 mm
20:34 19.4 °C 9.5 °C 1010.8 hPa Este 3.2 km/h 11.1 km/h 52.9% 0.0 mm
20:39 19.4 °C 9.5 °C 1010.6 hPa Este 4.7 km/h 11.9 km/h 53% 0.0 mm
20:44 19.3 °C 9.6 °C 1010.6 hPa ENE 6.5 km/h 11.3 km/h 53.5% 0.0 mm
20:49 19.3 °C 9.6 °C 1010.8 hPa Este 4.9 km/h 8.4 km/h 53.7% 0.0 mm
20:54 19.2 °C 9.7 °C 1010.8 hPa Este 2.9 km/h 8 km/h 54% 0.0 mm
20:59 19.1 °C 9.6 °C 1010.8 hPa Este 3.8 km/h 8 km/h 54.2% 0.0 mm
21:04 19 °C 9.8 °C 1010.8 hPa Este 4.6 km/h 8 km/h 55% 0.0 mm
21:09 19 °C 9.8 °C 1010.7 hPa ESE 4.7 km/h 9.3 km/h 55% 0.0 mm
21:14 18.9 °C 9.7 °C 1010.7 hPa ESE 4.7 km/h 9.7 km/h 55% 0.0 mm
21:19 18.8 °C 9.6 °C 1010.9 hPa ESE 4.8 km/h 9.3 km/h 55% 0.0 mm
21:24 18.8 °C 9.6 °C 1010.9 hPa SE 5 km/h 9.7 km/h 55.2% 0.0 mm
21:29 18.7 °C 9.7 °C 1010.9 hPa SE 5 km/h 9.7 km/h 55.9% 0.0 mm
21:34 18.6 °C 9.7 °C 1011.1 hPa SE 5 km/h 9.7 km/h 56% 0.0 mm
21:39 18.6 °C 9.7 °C 1011.1 hPa SE 3.8 km/h 4.8 km/h 56% 0.0 mm
21:44 18.6 °C 9.7 °C 1011.1 hPa SE 2.2 km/h 1.6 km/h 56% 0.0 mm
21:49 18.6 °C 9.7 °C 1011.3 hPa SE 1.3 km/h 4.7 km/h 56.3% 0.0 mm
21:54 18.6 °C 9.7 °C 1011.3 hPa Calm   7.6 km/h 56.3% 0.0 mm
21:59 18.5 °C 9.7 °C 1011.3 hPa SE 1.7 km/h 8 km/h 56.6% 0.0 mm
22:04 18.4 °C 9.8 °C 1011.4 hPa SSE 3.2 km/h 8.4 km/h 57.2% 0.0 mm
22:09 18.3 °C 9.9 °C 1011.4 hPa NO 3.2 km/h 8 km/h 58% 0.0 mm
22:14 18.2 °C 9.8 °C 1011.4 hPa NO 3.2 km/h 4.8 km/h 58.1% 0.0 mm
22:19 18.2 °C 10 °C 1011.6 hPa NO 1.8 km/h 4.7 km/h 58.9% 0.0 mm
22:24 18.1 °C 10 °C 1011.6 hPa Calm   4.8 km/h 59% 0.0 mm
22:29 18.1 °C 9.9 °C 1011.6 hPa Calm   5.8 km/h 59% 0.0 mm
22:34 18.1 °C 10.1 °C 1011.6 hPa Calm   9.3 km/h 59.4% 0.0 mm
22:39 18.1 °C 10.4 °C 1011.6 hPa ESE 1.7 km/h 9.7 km/h 60.8% 0.0 mm
22:44 17.9 °C 10.3 °C 1011.6 hPa SE 3.9 km/h 13 km/h 60.7% 0.0 mm
22:49 17.7 °C 10.1 °C 1011.8 hPa SE 5.3 km/h 13.7 km/h 61% 0.0 mm
22:54 17.6 °C 10 °C 1011.8 hPa SSE 7.6 km/h 14.5 km/h 61% 0.0 mm
22:59 17.7 °C 10 °C 1011.8 hPa SE 7.2 km/h 12.9 km/h 60.8% 0.0 mm
23:04 17.7 °C 10.2 °C 1011.8 hPa SE 6.9 km/h 11.3 km/h 61.7% 0.0 mm
23:09 17.6 °C 10.2 °C 1011.5 hPa ESE 6.1 km/h 11.3 km/h 62% 0.0 mm
23:14 17.5 °C 10.2 °C 1011.5 hPa SSE 5 km/h 8 km/h 62.4% 0.0 mm
23:19 17.4 °C 10.3 °C 1011.5 hPa SO 4.8 km/h 9.5 km/h 63% 0.0 mm
23:24 17.4 °C 10.3 °C 1011.4 hPa OSO 4.7 km/h 9.7 km/h 63% 0.0 mm
23:29 17.4 °C 10.1 °C 1011.4 hPa Oeste 4.7 km/h 9.3 km/h 62.1% 0.0 mm
23:34 17.3 °C 9.9 °C 1011.4 hPa ONO 4.7 km/h 9.7 km/h 62% 0.0 mm
23:39 17.3 °C 9.9 °C 1011.3 hPa Oeste 4.8 km/h 9.7 km/h 62% 0.0 mm
23:44 17.2 °C 9.9 °C 1011.3 hPa SO 5 km/h 10 km/h 62% 0.0 mm
23:49 17.2 °C 9.9 °C 1011.3 hPa SO 5.6 km/h 11.9 km/h 62% 0.0 mm
23:54 17.3 °C 9.9 °C 1011.1 hPa SO 6.5 km/h 17.2 km/h 61.8% 0.0 mm
23:59 17.4 °C 9.8 °C 1011.1 hPa OSO 6.7 km/h 17.7 km/h 61% 0.0 mm
Murcia-Puente Tocinos, España
Compliments of Weather Underground - 3 mb

La estación de MeteoMurcia.com, publica sus datos en los siguientes proyectos:

Weather Underground PWS IMURCIAP2 Meteoclimatic www.awekas.at

W3Counter
Web Analytics